Alida, Canada
Current Conditions -  °F | °C
As of 4:00 AM on Saturday 29 Nov 2014 (Local Time) from CYEN Reporting Station
Light Snow Light Snow  
Wind Chill: -5°   Ceiling: 400
Heat Index: 12°   Visibility: 3mi
Dew Point:   Wind: 18mph
Humidity: 85%   Direction: 300°WNW
Pressure: 29.47"   Gusts: 24mph
Location:  49.38°N, 101.87°W
Report Text: CYEN 291000Z 30016G21KT 3SM -SN DRSN OVC004 M11/M13 A2947 RMKSC8 SLP022
Loading
Personal Weather Stations






























Interactive Weather Map New forecast layout! Learn more

10-Day Weather Forecast

Advertisements
Track Severe Weather on mobile